createdAt,value
2022-08-05T00:00:22.640Z,4.67
2022-08-05T00:02:51.106Z,5.03
2022-08-05T00:06:01.821Z,5.50
2022-08-05T00:08:34.169Z,4.70
2022-08-05T00:11:01.751Z,5.50
2022-08-05T00:13:38.864Z,5.23
2022-08-05T00:16:12.548Z,5.73
2022-08-05T00:18:48.716Z,5.27
2022-08-05T00:21:17.316Z,5.33
2022-08-05T00:23:53.547Z,5.53
2022-08-05T00:26:32.409Z,4.80
2022-08-05T00:28:59.472Z,4.77
2022-08-05T00:31:53.737Z,5.20
2022-08-05T00:34:56.407Z,5.07
2022-08-05T00:37:13.233Z,6.03
2022-08-05T00:39:57.858Z,5.53
2022-08-05T00:42:34.311Z,5.47
2022-08-05T00:45:02.254Z,5.80
2022-08-05T00:47:56.706Z,5.30
2022-08-05T00:50:18.782Z,5.53
2022-08-05T00:52:48.405Z,5.43
2022-08-05T00:55:15.332Z,5.63
2022-08-05T00:57:58.045Z,5.90
2022-08-05T01:00:30.027Z,5.03
2022-08-05T01:02:59.810Z,4.40
2022-08-05T01:05:27.900Z,4.50
2022-08-05T01:08:40.620Z,4.60
2022-08-05T01:10:55.627Z,4.03
2022-08-05T01:13:57.885Z,4.10
2022-08-05T01:16:33.171Z,4.70
2022-08-05T01:19:14.155Z,4.27
2022-08-05T01:22:15.545Z,4.37
2022-08-05T01:25:07.580Z,4.40
2022-08-05T01:28:11.704Z,4.80
2022-08-05T01:30:46.577Z,4.60
2022-08-05T01:33:25.193Z,5.30
2022-08-05T01:35:57.585Z,4.73
2022-08-05T01:38:29.340Z,5.07
2022-08-05T01:41:02.224Z,4.50
2022-08-05T01:43:31.770Z,5.10
2022-08-05T01:46:07.467Z,5.23
2022-08-05T01:48:49.725Z,5.70
2022-08-05T01:51:18.650Z,5.00
2022-08-05T01:53:57.606Z,5.40
2022-08-05T01:58:12.869Z,4.70
2022-08-05T01:59:23.741Z,5.40
2022-08-05T02:01:54.762Z,5.00
2022-08-05T02:04:26.354Z,4.57
2022-08-05T02:06:53.960Z,5.27
2022-08-05T02:09:21.105Z,4.73
2022-08-05T02:11:52.460Z,5.53
2022-08-05T02:14:31.909Z,4.97
2022-08-05T02:18:28.725Z,5.10
2022-08-05T02:20:20.511Z,4.87
2022-08-05T02:22:56.422Z,5.10
2022-08-05T02:25:33.129Z,5.40
2022-08-05T02:28:02.539Z,5.20
2022-08-05T02:30:54.133Z,4.93
2022-08-05T02:33:24.629Z,5.00
2022-08-05T02:36:05.391Z,5.27
2022-08-05T02:38:35.464Z,5.60
2022-08-05T02:41:06.278Z,5.23
2022-08-05T02:43:34.551Z,5.37
2022-08-05T02:46:27.510Z,5.37
2022-08-05T02:48:56.376Z,4.97
2022-08-05T02:51:28.494Z,5.67
2022-08-05T02:54:36.223Z,5.10
2022-08-05T02:57:02.056Z,5.37
2022-08-05T02:59:31.037Z,5.50
2022-08-05T03:02:17.674Z,5.57
2022-08-05T03:04:46.714Z,5.97
2022-08-05T03:07:48.438Z,6.17
2022-08-05T03:10:09.731Z,6.37
2022-08-05T03:12:40.085Z,5.80
2022-08-05T03:15:12.478Z,5.73
2022-08-05T03:17:41.491Z,5.37
2022-08-05T03:20:10.090Z,5.37
2022-08-05T03:22:37.404Z,5.83
2022-08-05T03:25:32.932Z,5.13
2022-08-05T03:28:02.358Z,5.50
2022-08-05T03:30:34.031Z,5.93
2022-08-05T03:33:06.103Z,5.70
2022-08-05T03:35:40.407Z,5.40
2022-08-05T03:38:11.996Z,6.37
2022-08-05T03:40:45.405Z,6.00
2022-08-05T03:44:09.334Z,5.87
2022-08-05T03:46:09.258Z,5.63
2022-08-05T03:48:37.654Z,6.30
2022-08-05T03:52:37.525Z,6.60
2022-08-05T03:56:04.837Z,5.77
2022-08-05T03:57:29.047Z,6.07
2022-08-05T04:00:30.956Z,5.77
2022-08-05T04:03:09.220Z,6.40
2022-08-05T04:05:55.361Z,6.13
2022-08-05T04:08:34.982Z,6.47
2022-08-05T04:11:08.674Z,5.70
2022-08-05T04:13:49.727Z,6.33
2022-08-05T04:16:24.258Z,5.43
2022-08-05T04:18:57.988Z,5.77
2022-08-05T04:22:09.577Z,5.27
2022-08-05T04:24:19.088Z,6.07
2022-08-05T04:26:55.639Z,5.73
2022-08-05T04:29:38.484Z,5.63
2022-08-05T04:32:20.152Z,5.90
2022-08-05T04:35:20.173Z,6.53
2022-08-05T04:38:07.492Z,4.77
2022-08-05T04:40:39.366Z,5.83
2022-08-05T04:43:22.028Z,5.50
2022-08-05T04:45:54.756Z,4.80
2022-08-05T04:48:28.171Z,6.07
2022-08-05T04:51:03.021Z,5.87
2022-08-05T04:53:38.822Z,5.20
2022-08-05T04:56:33.693Z,4.83
2022-08-05T04:58:56.151Z,6.33
2022-08-05T05:02:05.792Z,4.63
2022-08-05T05:04:10.662Z,5.10
2022-08-05T05:06:44.668Z,4.80
2022-08-05T05:09:17.684Z,5.47
2022-08-05T05:11:53.939Z,5.30
2022-08-05T05:14:27.733Z,4.77
2022-08-05T05:17:03.337Z,5.40
2022-08-05T05:19:36.934Z,5.03
2022-08-05T05:22:22.978Z,5.33
2022-08-05T05:24:57.927Z,5.00
2022-08-05T05:27:44.137Z,4.90
2022-08-05T05:30:29.077Z,4.97
2022-08-05T05:33:03.427Z,5.27
2022-08-05T05:35:39.758Z,5.93
2022-08-05T05:38:12.713Z,5.97
2022-08-05T05:40:49.707Z,5.80
2022-08-05T05:43:54.530Z,4.80
2022-08-05T05:46:16.326Z,5.30
2022-08-05T05:48:47.940Z,5.30
2022-08-05T05:51:20.454Z,5.80
2022-08-05T05:53:57.446Z,5.10
2022-08-05T05:56:33.306Z,5.37
2022-08-05T05:59:08.296Z,4.80
2022-08-05T06:01:39.583Z,4.80
2022-08-05T06:04:12.759Z,4.73
2022-08-05T06:06:47.470Z,4.70
2022-08-05T06:09:24.798Z,4.93
2022-08-05T06:11:59.101Z,4.43
2022-08-05T06:14:30.407Z,4.17
2022-08-05T06:16:58.481Z,4.90
2022-08-05T06:19:34.586Z,4.73
2022-08-05T06:22:06.270Z,4.47
2022-08-05T06:24:48.336Z,4.67
2022-08-05T06:28:08.962Z,4.43
2022-08-05T06:30:16.858Z,3.40
2022-08-05T06:32:47.430Z,3.20
2022-08-05T06:35:15.486Z,3.37
2022-08-05T06:37:57.779Z,3.67
2022-08-05T06:40:28.026Z,3.63
2022-08-05T06:42:59.704Z,3.93
2022-08-05T06:45:45.008Z,3.63
2022-08-05T06:48:52.601Z,4.00
2022-08-05T06:51:23.820Z,3.70
2022-08-05T06:54:01.780Z,3.93
2022-08-05T06:56:33.402Z,6.00
2022-08-05T06:59:09.503Z,3.60
2022-08-05T07:01:40.688Z,4.33
2022-08-05T07:04:09.901Z,3.43
2022-08-05T07:06:37.019Z,3.50
2022-08-05T07:09:05.551Z,3.10
2022-08-05T07:11:37.412Z,3.00
2022-08-05T07:14:29.910Z,3.20
2022-08-05T07:17:58.679Z,3.13
2022-08-05T07:20:31.444Z,4.00
2022-08-05T07:22:43.106Z,3.00
2022-08-05T07:25:53.919Z,3.37
2022-08-05T07:28:05.977Z,5.20
2022-08-05T07:30:39.410Z,3.33
2022-08-05T07:33:36.464Z,3.40
2022-08-05T07:36:21.294Z,3.20
2022-08-05T07:38:49.151Z,2.77
2022-08-05T07:42:08.518Z,3.20
2022-08-05T07:44:14.205Z,2.97
2022-08-05T07:46:48.598Z,3.40
2022-08-05T07:49:18.628Z,3.30
2022-08-05T07:51:52.944Z,3.13
2022-08-05T07:54:30.806Z,3.30
2022-08-05T07:57:41.973Z,3.80
2022-08-05T07:59:52.454Z,3.20
2022-08-05T08:02:31.413Z,3.60
2022-08-05T08:05:16.072Z,3.70
2022-08-05T08:08:00.129Z,3.80
2022-08-05T08:10:32.588Z,3.30
2022-08-05T08:13:02.009Z,3.33
2022-08-05T08:16:33.493Z,3.10
2022-08-05T08:18:21.006Z,3.27
2022-08-05T08:21:02.098Z,3.13
2022-08-05T08:24:03.904Z,3.73
2022-08-05T08:26:26.800Z,4.03
2022-08-05T08:29:21.894Z,3.20
2022-08-05T08:31:48.332Z,3.10
2022-08-05T08:34:18.632Z,2.87
2022-08-05T08:36:52.352Z,2.97
2022-08-05T08:39:24.905Z,4.50
2022-08-05T08:41:59.964Z,4.20
2022-08-05T08:45:22.264Z,4.30
2022-08-05T08:48:05.677Z,4.30
2022-08-05T08:50:29.821Z,4.17
2022-08-05T08:53:12.036Z,3.87
2022-08-05T08:56:05.297Z,3.37
2022-08-05T08:58:37.444Z,3.20
2022-08-05T09:01:15.997Z,4.27
2022-08-05T09:03:52.913Z,3.50
2022-08-05T09:06:28.255Z,3.40
2022-08-05T09:09:02.122Z,3.10
2022-08-05T09:11:52.076Z,3.27
2022-08-05T09:14:56.346Z,3.90
2022-08-05T09:17:39.937Z,3.30
2022-08-05T09:20:01.712Z,3.03
2022-08-05T09:23:05.481Z,3.20
2022-08-05T09:26:02.659Z,3.00
2022-08-05T09:28:32.066Z,3.00
2022-08-05T09:31:22.092Z,7.87
2022-08-05T09:33:58.784Z,5.17
2022-08-05T09:36:54.609Z,3.73
2022-08-05T09:39:39.290Z,3.07
2022-08-05T09:42:28.146Z,2.73
2022-08-05T09:45:03.393Z,2.70
2022-08-05T09:47:55.556Z,2.53
2022-08-05T09:50:44.856Z,2.70
2022-08-05T09:53:23.133Z,3.40
2022-08-05T09:56:04.532Z,2.90
2022-08-05T09:58:41.747Z,2.57
2022-08-05T10:01:14.895Z,4.40
2022-08-05T10:04:00.391Z,3.13
2022-08-05T10:06:28.354Z,2.90
2022-08-05T10:08:56.869Z,3.08
2022-08-05T10:11:24.058Z,2.53
2022-08-05T10:13:58.307Z,2.90
2022-08-05T10:16:41.572Z,2.93
2022-08-05T10:19:23.821Z,3.03
2022-08-05T10:22:09.071Z,2.83
2022-08-05T10:24:42.594Z,3.17
2022-08-05T10:27:16.691Z,2.63
2022-08-05T10:30:06.839Z,3.10
2022-08-05T10:32:53.606Z,3.10
2022-08-05T10:35:19.864Z,2.97
2022-08-05T10:37:48.947Z,2.60
2022-08-05T10:40:30.497Z,2.70
2022-08-05T10:43:42.314Z,3.00
2022-08-05T10:46:12.158Z,2.50
2022-08-05T10:48:57.105Z,2.72
2022-08-05T10:51:28.899Z,2.78
2022-08-05T10:54:05.791Z,2.70
2022-08-05T10:56:57.743Z,2.53
2022-08-05T11:00:01.851Z,2.70
2022-08-05T11:02:34.660Z,2.80
2022-08-05T11:05:10.202Z,3.10
2022-08-05T11:08:01.709Z,3.00
2022-08-05T11:10:38.188Z,2.90
2022-08-05T11:13:57.618Z,3.13
2022-08-05T11:16:33.729Z,2.53
2022-08-05T11:20:10.111Z,2.63
2022-08-05T11:22:42.302Z,2.92
2022-08-05T11:26:05.554Z,2.83
2022-08-05T11:28:18.213Z,3.03
2022-08-05T11:30:58.543Z,2.92
2022-08-05T11:33:34.717Z,3.30
2022-08-05T11:36:16.532Z,2.38
2022-08-05T11:39:01.974Z,2.58
2022-08-05T11:41:54.778Z,2.70
2022-08-05T11:44:40.159Z,2.35
2022-08-05T11:47:10.908Z,2.95
2022-08-05T11:49:42.774Z,2.75
2022-08-05T11:52:11.925Z,2.10
2022-08-05T11:54:41.410Z,2.63
2022-08-05T11:57:25.406Z,2.80
2022-08-05T11:59:54.648Z,2.92
2022-08-05T12:02:31.854Z,2.55
2022-08-05T12:05:07.236Z,2.60
2022-08-05T12:08:07.374Z,2.72
2022-08-05T12:10:43.651Z,2.58
2022-08-05T12:30:10.583Z,2.63
2022-08-05T12:32:50.355Z,2.63
2022-08-05T12:35:21.600Z,2.70
2022-08-05T12:37:49.425Z,2.60
2022-08-05T12:40:26.863Z,3.25
2022-08-05T12:46:40.678Z,2.85
2022-08-05T12:49:15.037Z,2.95
2022-08-05T12:52:12.081Z,2.95
2022-08-05T12:54:35.717Z,2.95
2022-08-05T12:57:09.670Z,3.00
2022-08-05T13:01:57.369Z,2.80
2022-08-05T13:02:41.679Z,2.77
2022-08-05T13:05:11.180Z,2.80
2022-08-05T13:08:00.449Z,3.00
2022-08-05T13:10:32.851Z,2.77
2022-08-05T13:12:59.764Z,3.00
2022-08-05T13:15:36.111Z,2.70
2022-08-05T13:18:20.214Z,3.03
2022-08-05T13:20:49.885Z,2.85
2022-08-05T13:23:18.226Z,3.60
2022-08-05T13:25:59.497Z,2.75
2022-08-05T13:28:29.167Z,3.10
2022-08-05T13:30:59.285Z,2.72
2022-08-05T13:34:24.055Z,3.20
2022-08-05T13:36:17.307Z,2.80
2022-08-05T13:38:51.906Z,2.60
2022-08-05T13:41:20.501Z,3.10
2022-08-05T13:43:54.369Z,2.88
2022-08-05T13:46:43.624Z,3.38
2022-08-05T13:49:13.682Z,3.42
2022-08-05T13:51:46.296Z,2.90
2022-08-05T13:54:16.029Z,3.40
2022-08-05T13:56:51.633Z,3.50
2022-08-05T13:59:23.725Z,2.83
2022-08-05T14:02:09.949Z,3.10
2022-08-05T14:05:11.524Z,3.77
2022-08-05T14:07:59.871Z,3.20
2022-08-05T14:10:30.742Z,2.77
2022-08-05T14:12:59.374Z,3.63
2022-08-05T14:16:08.863Z,2.88
2022-08-05T14:51:49.100Z,3.42
2022-08-05T14:54:28.967Z,3.15
2022-08-05T15:47:54.394Z,3.70
2022-08-05T15:50:25.181Z,3.08
2022-08-05T15:52:55.288Z,3.42
2022-08-05T15:55:25.050Z,4.18
2022-08-05T15:58:16.381Z,3.03
2022-08-05T16:00:51.037Z,3.33
2022-08-05T16:03:32.759Z,3.20
2022-08-05T16:06:01.441Z,3.25
2022-08-05T16:08:30.573Z,3.33
2022-08-05T16:10:58.628Z,4.03
2022-08-05T16:13:34.382Z,3.10
2022-08-05T16:16:05.913Z,3.70
2022-08-05T16:18:33.455Z,5.33
2022-08-05T16:21:04.302Z,5.00
2022-08-05T16:23:53.082Z,4.03
2022-08-05T16:26:26.299Z,3.37
2022-08-05T16:28:54.655Z,3.90
2022-08-05T16:31:22.195Z,4.53
2022-08-05T16:33:49.614Z,4.13
2022-08-05T16:36:20.158Z,4.07
2022-08-05T16:38:54.986Z,3.50
2022-08-05T16:42:12.221Z,3.40
2022-08-05T16:44:11.710Z,3.60
2022-08-05T16:46:41.197Z,3.40
2022-08-05T16:49:22.642Z,3.40
2022-08-05T16:51:51.328Z,3.23
2022-08-05T16:54:27.520Z,3.60
2022-08-05T16:57:00.435Z,3.57
2022-08-05T16:59:30.770Z,3.70
2022-08-05T17:01:58.168Z,4.17
2022-08-05T17:04:28.261Z,4.00
2022-08-05T17:07:01.157Z,3.87
2022-08-05T17:09:30.544Z,3.57
2022-08-05T17:12:06.476Z,3.63
2022-08-05T17:14:37.239Z,3.40
2022-08-05T17:17:14.553Z,3.33
2022-08-05T17:19:45.510Z,3.27
2022-08-05T17:22:24.659Z,3.07
2022-08-05T17:24:57.893Z,3.10
2022-08-05T17:27:33.867Z,6.33
2022-08-05T17:30:04.684Z,5.20
2022-08-05T17:32:39.226Z,3.33
2022-08-05T17:35:10.808Z,3.37
2022-08-05T17:37:45.446Z,3.10
2022-08-05T17:40:17.429Z,3.27
2022-08-05T17:42:50.579Z,3.10
2022-08-05T17:48:39.220Z,4.50
2022-08-05T17:51:10.369Z,3.33
2022-08-05T17:53:39.720Z,3.63
2022-08-05T17:56:09.760Z,4.17
2022-08-05T17:58:39.654Z,5.67
2022-08-05T18:01:08.048Z,3.80
2022-08-05T18:03:59.199Z,4.63
2022-08-05T18:06:29.246Z,4.97
2022-08-05T18:08:56.563Z,5.67
2022-08-05T18:11:32.598Z,3.67
2022-08-05T18:14:13.367Z,3.50
2022-08-05T18:16:43.766Z,3.00
2022-08-05T18:19:22.649Z,3.60
2022-08-05T18:22:09.034Z,3.43
2022-08-05T18:24:39.516Z,3.07
2022-08-05T18:27:12.473Z,3.77
2022-08-05T18:29:48.209Z,4.27
2022-08-05T18:32:21.358Z,4.20
2022-08-05T18:34:56.091Z,3.90
2022-08-05T18:37:33.720Z,3.20
2022-08-05T18:40:33.986Z,3.60
2022-08-05T18:42:54.773Z,3.73
2022-08-05T18:45:22.018Z,3.43
2022-08-05T18:47:56.714Z,3.80
2022-08-05T18:50:46.511Z,3.50
2022-08-05T18:53:20.514Z,3.37
2022-08-05T18:55:51.639Z,4.00
2022-08-05T18:58:26.984Z,5.27
2022-08-05T19:00:56.850Z,4.03
2022-08-05T19:03:52.925Z,5.60
2022-08-05T19:06:20.041Z,5.37
2022-08-05T19:08:49.573Z,5.87
2022-08-05T19:11:37.098Z,6.00
2022-08-05T19:14:59.172Z,5.20
2022-08-05T19:17:02.893Z,4.13
2022-08-05T19:19:33.377Z,4.63
2022-08-05T19:22:01.149Z,5.33
2022-08-05T19:24:34.660Z,4.80
2022-08-05T19:27:04.107Z,4.10
2022-08-05T19:29:36.276Z,4.17
2022-08-05T19:32:08.498Z,3.70
2022-08-05T19:34:38.023Z,3.97
2022-08-05T19:37:05.465Z,3.97
2022-08-05T19:39:32.410Z,4.17
2022-08-05T19:42:15.133Z,3.67
2022-08-05T19:44:45.267Z,4.37
2022-08-05T19:47:15.088Z,4.80
2022-08-05T19:49:45.181Z,4.43
2022-08-05T19:52:30.917Z,4.90
2022-08-05T19:55:00.564Z,7.33
2022-08-05T19:58:00.573Z,4.70
2022-08-05T20:00:21.382Z,4.00
2022-08-05T20:02:48.397Z,4.00
2022-08-05T20:05:16.613Z,4.00
2022-08-05T20:07:56.290Z,4.20
2022-08-05T20:10:25.689Z,4.33
2022-08-05T20:12:53.021Z,4.20
2022-08-05T20:15:48.485Z,4.70
2022-08-05T20:18:10.860Z,4.77
2022-08-05T20:20:57.131Z,4.07
2022-08-05T20:23:39.432Z,4.63
2022-08-05T20:26:16.475Z,4.80
2022-08-05T20:28:50.617Z,4.80
2022-08-05T20:31:21.422Z,4.63
2022-08-05T20:33:50.131Z,4.67
2022-08-05T20:36:18.283Z,4.60
2022-08-05T20:38:54.687Z,4.43
2022-08-05T20:41:43.871Z,4.77
2022-08-05T20:44:17.722Z,4.23
2022-08-05T20:46:47.793Z,4.90
2022-08-05T20:49:15.439Z,4.23
2022-08-05T20:51:53.602Z,4.40
2022-08-05T20:54:59.805Z,4.10
2022-08-05T20:57:42.145Z,3.90
2022-08-05T21:00:19.578Z,3.97
2022-08-05T21:02:52.223Z,4.00
2022-08-05T21:05:19.264Z,4.20
2022-08-05T21:07:52.132Z,5.13
2022-08-05T21:10:20.113Z,4.50
2022-08-05T21:12:58.060Z,4.77
2022-08-05T21:15:36.269Z,3.90
2022-08-05T21:18:03.420Z,5.67
2022-08-05T21:20:33.018Z,5.73
2022-08-05T21:23:01.181Z,7.00
2022-08-05T21:25:33.713Z,7.60
2022-08-05T21:28:03.403Z,7.10
2022-08-05T21:30:31.745Z,6.53
2022-08-05T21:32:59.943Z,6.00
2022-08-05T21:35:43.752Z,5.97
2022-08-05T21:38:17.080Z,6.80
2022-08-05T21:40:45.154Z,6.87
2022-08-05T21:43:17.750Z,6.70
2022-08-05T21:45:56.625Z,6.30
2022-08-05T21:48:25.031Z,6.60
2022-08-05T21:50:53.136Z,6.10
2022-08-05T21:53:21.748Z,5.77
2022-08-05T21:56:04.707Z,6.50
2022-08-05T21:58:42.267Z,6.60
2022-08-05T22:01:10.630Z,6.10
2022-08-05T22:03:52.168Z,5.30
2022-08-05T22:06:22.545Z,5.37
2022-08-05T22:08:53.210Z,5.53
2022-08-05T22:11:34.722Z,5.27
2022-08-05T22:14:06.227Z,5.83
2022-08-05T22:16:55.910Z,5.03
2022-08-05T22:19:57.431Z,5.47
2022-08-05T22:22:11.913Z,4.67
2022-08-05T22:24:57.872Z,14.70
2022-08-05T22:28:10.656Z,5.40
2022-08-05T22:30:35.950Z,4.93
2022-08-05T22:33:15.547Z,5.40
2022-08-05T22:35:49.221Z,4.80
2022-08-05T22:38:19.004Z,4.93
2022-08-05T22:40:49.540Z,5.37
2022-08-05T22:43:37.170Z,5.20
2022-08-05T22:46:13.367Z,4.43
2022-08-05T22:48:41.951Z,4.63
2022-08-05T22:51:15.858Z,4.30
2022-08-05T22:53:51.218Z,4.63
2022-08-05T22:56:30.112Z,4.60
2022-08-05T22:58:59.871Z,5.00
2022-08-05T23:02:04.881Z,4.37
2022-08-05T23:04:17.565Z,4.30
2022-08-05T23:06:44.453Z,4.00
2022-08-05T23:09:27.996Z,4.10
2022-08-05T23:11:59.774Z,4.47
2022-08-05T23:14:31.983Z,4.40
2022-08-05T23:17:24.472Z,4.43
2022-08-05T23:20:01.077Z,4.30
2022-08-05T23:22:31.130Z,4.50
2022-08-05T23:24:58.125Z,4.83
2022-08-05T23:27:28.973Z,4.50
2022-08-05T23:30:01.030Z,5.07
2022-08-05T23:32:28.332Z,4.83
2022-08-05T23:34:56.563Z,5.07
2022-08-05T23:37:23.628Z,4.90
2022-08-05T23:39:54.962Z,5.00
2022-08-05T23:42:28.992Z,4.27
2022-08-05T23:44:57.082Z,4.60
2022-08-05T23:47:24.907Z,4.60
2022-08-05T23:49:56.421Z,4.73
2022-08-05T23:52:27.597Z,5.43
2022-08-05T23:54:57.413Z,5.40
2022-08-05T23:57:28.246Z,5.00
